sensor_id;sensor_type;location;lat;lon;timestamp;P1;durP1;ratioP1;P2;durP2;ratioP2
57337;SDS011;43173;50.980;18.204;2024-03-22T00:02:21;23.30;;;14.70;;
57337;SDS011;43173;50.980;18.204;2024-03-22T00:04:47;17.90;;;11.70;;
57337;SDS011;43173;50.980;18.204;2024-03-22T00:07:12;22.30;;;13.90;;
57337;SDS011;43173;50.980;18.204;2024-03-22T00:09:38;24.20;;;15.10;;
57337;SDS011;43173;50.980;18.204;2024-03-22T00:12:03;20.90;;;12.80;;
57337;SDS011;43173;50.980;18.204;2024-03-22T00:14:29;22.80;;;14.90;;
57337;SDS011;43173;50.980;18.204;2024-03-22T00:16:55;15.30;;;10.30;;
57337;SDS011;43173;50.980;18.204;2024-03-22T00:19:20;22.30;;;14.50;;
57337;SDS011;43173;50.980;18.204;2024-03-22T00:21:45;19.70;;;12.50;;
57337;SDS011;43173;50.980;18.204;2024-03-22T00:27:24;22.20;;;12.70;;
57337;SDS011;43173;50.980;18.204;2024-03-22T00:29:49;17.30;;;12.50;;
57337;SDS011;43173;50.980;18.204;2024-03-22T00:32:15;17.10;;;10.60;;
57337;SDS011;43173;50.980;18.204;2024-03-22T00:34:41;19.70;;;14.50;;
57337;SDS011;43173;50.980;18.204;2024-03-22T00:37:06;17.90;;;12.10;;
57337;SDS011;43173;50.980;18.204;2024-03-22T00:39:32;21.70;;;13.60;;
57337;SDS011;43173;50.980;18.204;2024-03-22T00:41:58;19.50;;;12.90;;
57337;SDS011;43173;50.980;18.204;2024-03-22T00:44:24;21.30;;;13.80;;
57337;SDS011;43173;50.980;18.204;2024-03-22T00:46:49;21.20;;;14.20;;
57337;SDS011;43173;50.980;18.204;2024-03-22T00:49:15;17.70;;;12.60;;
57337;SDS011;43173;50.980;18.204;2024-03-22T00:51:41;18.60;;;12.80;;
57337;SDS011;43173;50.980;18.204;2024-03-22T00:54:09;20.10;;;12.60;;
57337;SDS011;43173;50.980;18.204;2024-03-22T00:56:35;16.90;;;12.60;;
57337;SDS011;43173;50.980;18.204;2024-03-22T00:59:00;20.30;;;13.40;;
57337;SDS011;43173;50.980;18.204;2024-03-22T01:01:26;16.90;;;12.60;;
57337;SDS011;43173;50.980;18.204;2024-03-22T01:03:51;18.80;;;12.60;;
57337;SDS011;43173;50.980;18.204;2024-03-22T01:06:17;20.30;;;13.30;;
57337;SDS011;43173;50.980;18.204;2024-03-22T01:08:47;18.60;;;13.40;;
57337;SDS011;43173;50.980;18.204;2024-03-22T01:11:13;21.60;;;14.00;;
57337;SDS011;43173;50.980;18.204;2024-03-22T01:13:38;19.20;;;13.20;;
57337;SDS011;43173;50.980;18.204;2024-03-22T01:16:04;18.20;;;11.20;;
57337;SDS011;43173;50.980;18.204;2024-03-22T01:18:30;19.10;;;12.90;;
57337;SDS011;43173;50.980;18.204;2024-03-22T01:20:56;19.40;;;13.20;;
57337;SDS011;43173;50.980;18.204;2024-03-22T01:23:22;18.40;;;12.90;;
57337;SDS011;43173;50.980;18.204;2024-03-22T01:25:47;20.60;;;13.50;;
57337;SDS011;43173;50.980;18.204;2024-03-22T01:28:13;20.90;;;13.70;;
57337;SDS011;43173;50.980;18.204;2024-03-22T01:30:38;18.30;;;12.50;;
57337;SDS011;43173;50.980;18.204;2024-03-22T01:33:04;25.60;;;17.60;;
57337;SDS011;43173;50.980;18.204;2024-03-22T01:35:30;22.80;;;17.20;;
57337;SDS011;43173;50.980;18.204;2024-03-22T01:37:55;22.20;;;17.10;;
57337;SDS011;43173;50.980;18.204;2024-03-22T01:40:21;22.30;;;15.30;;
57337;SDS011;43173;50.980;18.204;2024-03-22T01:42:47;22.40;;;12.80;;
57337;SDS011;43173;50.980;18.204;2024-03-22T01:45:12;19.20;;;12.60;;
57337;SDS011;43173;50.980;18.204;2024-03-22T01:47:39;20.80;;;13.50;;
57337;SDS011;43173;50.980;18.204;2024-03-22T01:50:05;22.90;;;17.00;;
57337;SDS011;43173;50.980;18.204;2024-03-22T01:52:32;30.90;;;23.00;;
57337;SDS011;43173;50.980;18.204;2024-03-22T01:54:58;31.10;;;21.40;;
57337;SDS011;43173;50.980;18.204;2024-03-22T01:57:24;31.10;;;22.20;;
57337;SDS011;43173;50.980;18.204;2024-03-22T01:59:49;29.40;;;21.30;;
57337;SDS011;43173;50.980;18.204;2024-03-22T02:02:17;30.90;;;22.10;;
57337;SDS011;43173;50.980;18.204;2024-03-22T02:04:42;23.40;;;16.90;;
57337;SDS011;43173;50.980;18.204;2024-03-22T02:07:08;24.40;;;16.20;;
57337;SDS011;43173;50.980;18.204;2024-03-22T02:09:33;18.30;;;12.20;;
57337;SDS011;43173;50.980;18.204;2024-03-22T02:11:59;28.20;;;19.50;;
57337;SDS011;43173;50.980;18.204;2024-03-22T02:14:25;25.90;;;18.00;;
57337;SDS011;43173;50.980;18.204;2024-03-22T02:16:51;21.90;;;14.90;;
57337;SDS011;43173;50.980;18.204;2024-03-22T02:19:17;26.50;;;18.70;;
57337;SDS011;43173;50.980;18.204;2024-03-22T02:21:42;25.20;;;17.20;;
57337;SDS011;43173;50.980;18.204;2024-03-22T02:24:08;21.40;;;14.90;;
57337;SDS011;43173;50.980;18.204;2024-03-22T02:26:34;20.90;;;14.00;;
57337;SDS011;43173;50.980;18.204;2024-03-22T02:28:59;26.50;;;15.20;;
57337;SDS011;43173;50.980;18.204;2024-03-22T02:31:25;22.00;;;14.50;;
57337;SDS011;43173;50.980;18.204;2024-03-22T02:33:52;24.20;;;15.70;;
57337;SDS011;43173;50.980;18.204;2024-03-22T02:36:17;23.00;;;14.40;;
57337;SDS011;43173;50.980;18.204;2024-03-22T02:38:43;24.20;;;14.90;;
57337;SDS011;43173;50.980;18.204;2024-03-22T02:41:09;23.30;;;14.40;;
57337;SDS011;43173;50.980;18.204;2024-03-22T02:43:34;25.40;;;15.10;;
57337;SDS011;43173;50.980;18.204;2024-03-22T02:45:59;22.20;;;14.10;;
57337;SDS011;43173;50.980;18.204;2024-03-22T02:48:25;23.50;;;13.80;;
57337;SDS011;43173;50.980;18.204;2024-03-22T02:50:54;21.90;;;13.50;;
57337;SDS011;43173;50.980;18.204;2024-03-22T02:53:21;21.20;;;13.50;;
57337;SDS011;43173;50.980;18.204;2024-03-22T02:55:46;24.80;;;14.70;;
57337;SDS011;43173;50.980;18.204;2024-03-22T02:58:12;21.50;;;14.00;;
57337;SDS011;43173;50.980;18.204;2024-03-22T03:00:37;25.00;;;15.10;;
57337;SDS011;43173;50.980;18.204;2024-03-22T03:03:06;23.60;;;15.60;;
57337;SDS011;43173;50.980;18.204;2024-03-22T03:05:32;23.20;;;15.00;;
57337;SDS011;43173;50.980;18.204;2024-03-22T03:07:58;27.20;;;18.20;;
57337;SDS011;43173;50.980;18.204;2024-03-22T03:10:24;25.80;;;15.80;;
57337;SDS011;43173;50.980;18.204;2024-03-22T03:12:49;22.20;;;15.60;;
57337;SDS011;43173;50.980;18.204;2024-03-22T03:15:15;21.80;;;13.40;;
57337;SDS011;43173;50.980;18.204;2024-03-22T03:17:41;22.80;;;14.90;;
57337;SDS011;43173;50.980;18.204;2024-03-22T03:20:09;18.00;;;10.70;;
57337;SDS011;43173;50.980;18.204;2024-03-22T03:25:04;20.40;;;12.40;;
57337;SDS011;43173;50.980;18.204;2024-03-22T03:27:30;31.10;;;16.70;;
57337;SDS011;43173;50.980;18.204;2024-03-22T03:29:56;30.10;;;17.70;;
57337;SDS011;43173;50.980;18.204;2024-03-22T03:32:21;27.10;;;17.90;;
57337;SDS011;43173;50.980;18.204;2024-03-22T03:34:47;26.60;;;17.80;;
57337;SDS011;43173;50.980;18.204;2024-03-22T03:37:12;25.50;;;15.30;;
57337;SDS011;43173;50.980;18.204;2024-03-22T03:39:38;22.90;;;13.50;;
57337;SDS011;43173;50.980;18.204;2024-03-22T03:42:03;22.40;;;12.20;;
57337;SDS011;43173;50.980;18.204;2024-03-22T03:44:29;24.70;;;14.00;;
57337;SDS011;43173;50.980;18.204;2024-03-22T03:46:55;22.60;;;13.50;;
57337;SDS011;43173;50.980;18.204;2024-03-22T03:49:20;22.00;;;13.50;;
57337;SDS011;43173;50.980;18.204;2024-03-22T03:51:46;24.20;;;12.80;;
57337;SDS011;43173;50.980;18.204;2024-03-22T03:54:12;26.70;;;14.90;;
57337;SDS011;43173;50.980;18.204;2024-03-22T03:56:37;20.80;;;10.70;;
57337;SDS011;43173;50.980;18.204;2024-03-22T03:59:03;28.60;;;14.80;;
57337;SDS011;43173;50.980;18.204;2024-03-22T04:01:28;31.60;;;19.10;;
57337;SDS011;43173;50.980;18.204;2024-03-22T04:03:54;28.90;;;17.40;;
57337;SDS011;43173;50.980;18.204;2024-03-22T04:06:20;25.60;;;14.60;;
57337;SDS011;43173;50.980;18.204;2024-03-22T04:08:45;18.90;;;10.70;;
57337;SDS011;43173;50.980;18.204;2024-03-22T04:11:11;19.90;;;10.90;;
57337;SDS011;43173;50.980;18.204;2024-03-22T04:13:37;21.90;;;10.90;;
57337;SDS011;43173;50.980;18.204;2024-03-22T04:18:31;17.70;;;9.50;;
57337;SDS011;43173;50.980;18.204;2024-03-22T04:20:57;19.30;;;10.10;;
57337;SDS011;43173;50.980;18.204;2024-03-22T04:23:24;22.10;;;11.30;;
57337;SDS011;43173;50.980;18.204;2024-03-22T04:28:19;15.70;;;8.40;;
57337;SDS011;43173;50.980;18.204;2024-03-22T04:30:53;20.20;;;10.80;;
57337;SDS011;43173;50.980;18.204;2024-03-22T04:33:21;21.20;;;10.40;;
57337;SDS011;43173;50.980;18.204;2024-03-22T04:35:46;16.10;;;8.70;;
57337;SDS011;43173;50.980;18.204;2024-03-22T04:38:12;19.80;;;10.20;;
57337;SDS011;43173;50.980;18.204;2024-03-22T04:40:38;18.30;;;9.50;;
57337;SDS011;43173;50.980;18.204;2024-03-22T04:43:03;25.70;;;14.10;;
57337;SDS011;43173;50.980;18.204;2024-03-22T04:45:29;22.30;;;12.30;;
57337;SDS011;43173;50.980;18.204;2024-03-22T04:47:54;21.80;;;11.30;;
57337;SDS011;43173;50.980;18.204;2024-03-22T04:50:20;21.00;;;10.80;;
57337;SDS011;43173;50.980;18.204;2024-03-22T04:52:45;22.70;;;11.10;;
57337;SDS011;43173;50.980;18.204;2024-03-22T04:55:11;19.20;;;9.90;;
57337;SDS011;43173;50.980;18.204;2024-03-22T04:57:36;16.80;;;9.80;;
57337;SDS011;43173;50.980;18.204;2024-03-22T05:00:02;16.80;;;8.60;;
57337;SDS011;43173;50.980;18.204;2024-03-22T05:02:28;14.90;;;8.70;;
57337;SDS011;43173;50.980;18.204;2024-03-22T05:04:54;21.10;;;10.90;;
57337;SDS011;43173;50.980;18.204;2024-03-22T05:07:20;18.50;;;9.60;;
57337;SDS011;43173;50.980;18.204;2024-03-22T05:09:45;20.00;;;11.20;;
57337;SDS011;43173;50.980;18.204;2024-03-22T05:12:11;17.90;;;10.90;;
57337;SDS011;43173;50.980;18.204;2024-03-22T05:14:36;17.70;;;9.30;;
57337;SDS011;43173;50.980;18.204;2024-03-22T05:17:02;20.20;;;11.40;;
57337;SDS011;43173;50.980;18.204;2024-03-22T05:19:27;16.70;;;9.10;;
57337;SDS011;43173;50.980;18.204;2024-03-22T05:21:53;18.60;;;10.60;;
57337;SDS011;43173;50.980;18.204;2024-03-22T05:24:19;15.50;;;6.30;;
57337;SDS011;43173;50.980;18.204;2024-03-22T05:26:44;18.50;;;10.10;;
57337;SDS011;43173;50.980;18.204;2024-03-22T05:29:10;16.70;;;9.20;;
57337;SDS011;43173;50.980;18.204;2024-03-22T05:31:49;15.90;;;9.60;;
57337;SDS011;43173;50.980;18.204;2024-03-22T05:34:16;19.40;;;10.10;;
57337;SDS011;43173;50.980;18.204;2024-03-22T05:36:42;17.30;;;10.00;;
57337;SDS011;43173;50.980;18.204;2024-03-22T05:39:08;20.70;;;11.40;;
57337;SDS011;43173;50.980;18.204;2024-03-22T05:41:36;23.40;;;13.90;;
57337;SDS011;43173;50.980;18.204;2024-03-22T05:44:02;22.80;;;13.30;;
57337;SDS011;43173;50.980;18.204;2024-03-22T05:46:28;23.60;;;11.90;;
57337;SDS011;43173;50.980;18.204;2024-03-22T05:48:55;15.70;;;9.00;;
57337;SDS011;43173;50.980;18.204;2024-03-22T05:51:21;15.50;;;8.80;;
57337;SDS011;43173;50.980;18.204;2024-03-22T05:53:47;19.60;;;9.90;;
57337;SDS011;43173;50.980;18.204;2024-03-22T05:56:12;17.80;;;11.50;;
57337;SDS011;43173;50.980;18.204;2024-03-22T05:58:38;17.60;;;10.20;;
57337;SDS011;43173;50.980;18.204;2024-03-22T06:01:04;14.20;;;8.60;;
57337;SDS011;43173;50.980;18.204;2024-03-22T06:03:29;19.00;;;11.50;;
57337;SDS011;43173;50.980;18.204;2024-03-22T06:05:55;17.20;;;11.00;;
57337;SDS011;43173;50.980;18.204;2024-03-22T06:08:25;18.00;;;10.30;;
57337;SDS011;43173;50.980;18.204;2024-03-22T06:10:54;23.30;;;12.70;;
57337;SDS011;43173;50.980;18.204;2024-03-22T06:13:24;21.50;;;11.70;;
57337;SDS011;43173;50.980;18.204;2024-03-22T06:15:49;20.50;;;12.10;;
57337;SDS011;43173;50.980;18.204;2024-03-22T06:18:15;23.60;;;14.70;;
57337;SDS011;43173;50.980;18.204;2024-03-22T06:20:41;20.50;;;11.50;;
57337;SDS011;43173;50.980;18.204;2024-03-22T06:23:07;20.50;;;11.60;;
57337;SDS011;43173;50.980;18.204;2024-03-22T06:25:34;20.60;;;11.40;;
57337;SDS011;43173;50.980;18.204;2024-03-22T06:27:59;17.00;;;11.10;;
57337;SDS011;43173;50.980;18.204;2024-03-22T06:30:25;15.50;;;10.20;;
57337;SDS011;43173;50.980;18.204;2024-03-22T06:32:51;18.00;;;10.70;;
57337;SDS011;43173;50.980;18.204;2024-03-22T06:35:17;22.40;;;13.40;;
57337;SDS011;43173;50.980;18.204;2024-03-22T06:37:42;21.30;;;10.80;;
57337;SDS011;43173;50.980;18.204;2024-03-22T06:40:08;15.40;;;9.00;;
57337;SDS011;43173;50.980;18.204;2024-03-22T06:42:36;17.00;;;9.70;;
57337;SDS011;43173;50.980;18.204;2024-03-22T06:45:02;18.60;;;12.00;;
57337;SDS011;43173;50.980;18.204;2024-03-22T06:47:28;23.30;;;15.40;;
57337;SDS011;43173;50.980;18.204;2024-03-22T06:49:54;24.20;;;16.10;;
57337;SDS011;43173;50.980;18.204;2024-03-22T06:52:19;21.60;;;14.50;;
57337;SDS011;43173;50.980;18.204;2024-03-22T06:54:45;21.90;;;12.50;;
57337;SDS011;43173;50.980;18.204;2024-03-22T06:57:11;19.50;;;11.70;;
57337;SDS011;43173;50.980;18.204;2024-03-22T06:59:37;16.50;;;10.70;;
57337;SDS011;43173;50.980;18.204;2024-03-22T07:02:03;17.70;;;10.00;;
57337;SDS011;43173;50.980;18.204;2024-03-22T07:04:28;16.30;;;9.60;;
57337;SDS011;43173;50.980;18.204;2024-03-22T07:06:54;14.70;;;9.00;;
57337;SDS011;43173;50.980;18.204;2024-03-22T07:09:19;11.60;;;6.80;;
57337;SDS011;43173;50.980;18.204;2024-03-22T07:11:45;15.60;;;9.30;;
57337;SDS011;43173;50.980;18.204;2024-03-22T07:14:11;16.00;;;9.10;;
57337;SDS011;43173;50.980;18.204;2024-03-22T07:16:37;13.90;;;8.70;;
57337;SDS011;43173;50.980;18.204;2024-03-22T07:19:02;12.90;;;8.20;;
57337;SDS011;43173;50.980;18.204;2024-03-22T07:21:29;16.70;;;9.10;;
57337;SDS011;43173;50.980;18.204;2024-03-22T07:23:56;15.50;;;9.80;;
57337;SDS011;43173;50.980;18.204;2024-03-22T07:26:21;13.80;;;8.10;;
57337;SDS011;43173;50.980;18.204;2024-03-22T07:28:47;17.60;;;10.00;;
57337;SDS011;43173;50.980;18.204;2024-03-22T07:31:12;14.70;;;9.50;;
57337;SDS011;43173;50.980;18.204;2024-03-22T07:46:31;14.50;;;8.10;;
57337;SDS011;43173;50.980;18.204;2024-03-22T07:48:57;14.60;;;9.10;;
57337;SDS011;43173;50.980;18.204;2024-03-22T07:51:23;14.50;;;8.70;;
57337;SDS011;43173;50.980;18.204;2024-03-22T07:53:48;16.10;;;6.70;;
57337;SDS011;43173;50.980;18.204;2024-03-22T07:56:14;9.10;;;5.60;;
57337;SDS011;43173;50.980;18.204;2024-03-22T07:58:41;12.00;;;7.80;;
57337;SDS011;43173;50.980;18.204;2024-03-22T08:01:06;8.10;;;5.30;;
57337;SDS011;43173;50.980;18.204;2024-03-22T08:03:31;12.80;;;7.40;;
57337;SDS011;43173;50.980;18.204;2024-03-22T08:05:57;9.00;;;5.10;;
57337;SDS011;43173;50.980;18.204;2024-03-22T08:08:22;11.60;;;7.00;;
57337;SDS011;43173;50.980;18.204;2024-03-22T08:10:48;10.40;;;5.90;;
57337;SDS011;43173;50.980;18.204;2024-03-22T08:13:14;11.40;;;6.70;;
57337;SDS011;43173;50.980;18.204;2024-03-22T08:15:40;8.90;;;5.30;;
57337;SDS011;43173;50.980;18.204;2024-03-22T08:18:05;10.60;;;5.50;;
57337;SDS011;43173;50.980;18.204;2024-03-22T08:20:31;10.40;;;5.60;;
57337;SDS011;43173;50.980;18.204;2024-03-22T08:22:59;10.10;;;5.70;;
57337;SDS011;43173;50.980;18.204;2024-03-22T08:25:24;7.70;;;4.30;;
57337;SDS011;43173;50.980;18.204;2024-03-22T08:27:50;11.10;;;6.50;;
57337;SDS011;43173;50.980;18.204;2024-03-22T08:30:20;10.70;;;5.80;;
57337;SDS011;43173;50.980;18.204;2024-03-22T08:32:45;7.80;;;4.90;;
57337;SDS011;43173;50.980;18.204;2024-03-22T08:35:11;10.20;;;5.40;;
57337;SDS011;43173;50.980;18.204;2024-03-22T08:37:36;10.10;;;5.90;;
57337;SDS011;43173;50.980;18.204;2024-03-22T08:40:02;9.60;;;4.90;;
57337;SDS011;43173;50.980;18.204;2024-03-22T08:42:30;11.50;;;5.00;;
57337;SDS011;43173;50.980;18.204;2024-03-22T08:44:55;10.10;;;4.20;;
57337;SDS011;43173;50.980;18.204;2024-03-22T08:47:21;9.40;;;4.50;;
57337;SDS011;43173;50.980;18.204;2024-03-22T08:49:49;7.10;;;4.40;;
57337;SDS011;43173;50.980;18.204;2024-03-22T08:52:15;6.40;;;4.10;;
57337;SDS011;43173;50.980;18.204;2024-03-22T08:54:41;9.20;;;4.90;;
57337;SDS011;43173;50.980;18.204;2024-03-22T08:57:06;8.70;;;5.00;;
57337;SDS011;43173;50.980;18.204;2024-03-22T08:59:32;10.40;;;6.20;;
57337;SDS011;43173;50.980;18.204;2024-03-22T09:01:58;11.20;;;6.40;;
57337;SDS011;43173;50.980;18.204;2024-03-22T09:04:27;11.50;;;5.50;;
57337;SDS011;43173;50.980;18.204;2024-03-22T09:06:52;12.40;;;7.00;;
57337;SDS011;43173;50.980;18.204;2024-03-22T09:09:18;12.20;;;7.00;;
57337;SDS011;43173;50.980;18.204;2024-03-22T09:11:43;12.40;;;6.90;;
57337;SDS011;43173;50.980;18.204;2024-03-22T09:14:09;12.50;;;7.00;;
57337;SDS011;43173;50.980;18.204;2024-03-22T09:16:35;13.60;;;8.50;;
57337;SDS011;43173;50.980;18.204;2024-03-22T09:19:01;13.10;;;8.60;;
57337;SDS011;43173;50.980;18.204;2024-03-22T09:21:26;14.40;;;8.50;;
57337;SDS011;43173;50.980;18.204;2024-03-22T09:23:52;12.30;;;8.00;;
57337;SDS011;43173;50.980;18.204;2024-03-22T09:26:17;12.30;;;6.80;;
57337;SDS011;43173;50.980;18.204;2024-03-22T09:28:45;13.10;;;7.90;;
57337;SDS011;43173;50.980;18.204;2024-03-22T09:31:11;8.00;;;4.80;;
57337;SDS011;43173;50.980;18.204;2024-03-22T09:33:37;11.40;;;6.20;;
57337;SDS011;43173;50.980;18.204;2024-03-22T09:36:03;9.90;;;6.30;;
57337;SDS011;43173;50.980;18.204;2024-03-22T09:38:29;8.60;;;5.40;;
57337;SDS011;43173;50.980;18.204;2024-03-22T09:40:54;12.50;;;7.40;;
57337;SDS011;43173;50.980;18.204;2024-03-22T09:43:21;9.50;;;5.50;;
57337;SDS011;43173;50.980;18.204;2024-03-22T09:45:47;13.90;;;7.90;;
57337;SDS011;43173;50.980;18.204;2024-03-22T09:48:15;14.20;;;8.40;;
57337;SDS011;43173;50.980;18.204;2024-03-22T09:50:42;15.10;;;8.10;;
57337;SDS011;43173;50.980;18.204;2024-03-22T09:53:09;14.30;;;8.00;;
57337;SDS011;43173;50.980;18.204;2024-03-22T09:55:35;14.80;;;7.90;;
57337;SDS011;43173;50.980;18.204;2024-03-22T09:58:02;11.20;;;7.60;;
57337;SDS011;43173;50.980;18.204;2024-03-22T10:00:27;13.30;;;7.50;;
57337;SDS011;43173;50.980;18.204;2024-03-22T10:02:53;13.20;;;7.40;;
57337;SDS011;43173;50.980;18.204;2024-03-22T10:05:19;12.60;;;7.40;;
57337;SDS011;43173;50.980;18.204;2024-03-22T10:07:45;15.30;;;9.30;;
57337;SDS011;43173;50.980;18.204;2024-03-22T10:10:10;13.50;;;7.20;;
57337;SDS011;43173;50.980;18.204;2024-03-22T10:12:38;13.40;;;7.90;;
57337;SDS011;43173;50.980;18.204;2024-03-22T10:15:04;17.10;;;9.60;;
57337;SDS011;43173;50.980;18.204;2024-03-22T10:17:34;13.90;;;9.70;;
57337;SDS011;43173;50.980;18.204;2024-03-22T10:20:00;13.90;;;8.90;;
57337;SDS011;43173;50.980;18.204;2024-03-22T10:22:26;11.60;;;6.70;;
57337;SDS011;43173;50.980;18.204;2024-03-22T10:24:51;14.50;;;7.80;;
57337;SDS011;43173;50.980;18.204;2024-03-22T10:27:17;15.50;;;8.90;;
57337;SDS011;43173;50.980;18.204;2024-03-22T10:29:44;14.40;;;7.90;;
57337;SDS011;43173;50.980;18.204;2024-03-22T10:32:09;16.40;;;9.90;;
57337;SDS011;43173;50.980;18.204;2024-03-22T10:34:35;16.60;;;8.90;;
57337;SDS011;43173;50.980;18.204;2024-03-22T10:37:01;16.00;;;9.20;;
57337;SDS011;43173;50.980;18.204;2024-03-22T10:39:26;18.00;;;10.10;;
57337;SDS011;43173;50.980;18.204;2024-03-22T10:41:52;15.70;;;8.90;;
57337;SDS011;43173;50.980;18.204;2024-03-22T10:44:18;16.40;;;8.90;;
57337;SDS011;43173;50.980;18.204;2024-03-22T10:46:47;15.30;;;8.80;;
57337;SDS011;43173;50.980;18.204;2024-03-22T10:49:17;17.70;;;9.00;;
57337;SDS011;43173;50.980;18.204;2024-03-22T10:51:46;15.00;;;8.70;;
57337;SDS011;43173;50.980;18.204;2024-03-22T10:54:17;12.90;;;7.30;;
57337;SDS011;43173;50.980;18.204;2024-03-22T10:56:46;14.90;;;9.00;;
57337;SDS011;43173;50.980;18.204;2024-03-22T10:59:14;21.30;;;10.50;;
57337;SDS011;43173;50.980;18.204;2024-03-22T11:01:44;15.00;;;9.30;;
57337;SDS011;43173;50.980;18.204;2024-03-22T11:04:11;16.40;;;8.20;;
57337;SDS011;43173;50.980;18.204;2024-03-22T11:06:37;13.60;;;8.20;;
57337;SDS011;43173;50.980;18.204;2024-03-22T11:09:03;13.50;;;8.00;;
57337;SDS011;43173;50.980;18.204;2024-03-22T11:11:34;14.20;;;8.10;;
57337;SDS011;43173;50.980;18.204;2024-03-22T11:14:05;10.60;;;7.00;;
57337;SDS011;43173;50.980;18.204;2024-03-22T11:16:31;13.60;;;7.30;;
57337;SDS011;43173;50.980;18.204;2024-03-22T11:18:56;12.40;;;7.70;;
57337;SDS011;43173;50.980;18.204;2024-03-22T11:21:22;12.80;;;7.00;;
57337;SDS011;43173;50.980;18.204;2024-03-22T11:23:48;13.80;;;7.70;;
57337;SDS011;43173;50.980;18.204;2024-03-22T11:26:13;10.40;;;6.50;;
57337;SDS011;43173;50.980;18.204;2024-03-22T11:28:39;10.50;;;6.90;;
57337;SDS011;43173;50.980;18.204;2024-03-22T11:31:05;11.30;;;7.50;;
57337;SDS011;43173;50.980;18.204;2024-03-22T11:33:31;13.60;;;7.80;;
57337;SDS011;43173;50.980;18.204;2024-03-22T11:36:01;11.70;;;6.70;;
57337;SDS011;43173;50.980;18.204;2024-03-22T11:38:28;12.40;;;7.20;;
57337;SDS011;43173;50.980;18.204;2024-03-22T11:40:55;13.00;;;7.10;;
57337;SDS011;43173;50.980;18.204;2024-03-22T11:43:23;11.80;;;7.20;;
57337;SDS011;43173;50.980;18.204;2024-03-22T11:45:48;11.30;;;7.00;;
57337;SDS011;43173;50.980;18.204;2024-03-22T11:48:14;14.30;;;7.20;;
57337;SDS011;43173;50.980;18.204;2024-03-22T11:50:40;11.90;;;6.90;;
57337;SDS011;43173;50.980;18.204;2024-03-22T11:53:05;10.70;;;6.80;;
57337;SDS011;43173;50.980;18.204;2024-03-22T11:55:31;10.70;;;7.30;;
57337;SDS011;43173;50.980;18.204;2024-03-22T11:57:57;11.10;;;7.20;;
57337;SDS011;43173;50.980;18.204;2024-03-22T12:00:23;11.80;;;7.50;;
57337;SDS011;43173;50.980;18.204;2024-03-22T12:02:51;10.30;;;7.10;;
57337;SDS011;43173;50.980;18.204;2024-03-22T12:05:23;11.60;;;7.40;;
57337;SDS011;43173;50.980;18.204;2024-03-22T12:21:32;10.80;;;8.20;;
57337;SDS011;43173;50.980;18.204;2024-03-22T12:23:58;9.40;;;5.90;;
57337;SDS011;43173;50.980;18.204;2024-03-22T12:26:23;10.40;;;7.40;;
57337;SDS011;43173;50.980;18.204;2024-03-22T12:28:49;11.50;;;7.30;;
57337;SDS011;43173;50.980;18.204;2024-03-22T12:31:16;12.40;;;7.50;;
57337;SDS011;43173;50.980;18.204;2024-03-22T12:33:42;11.20;;;8.00;;
57337;SDS011;43173;50.980;18.204;2024-03-22T12:36:08;13.30;;;7.70;;
57337;SDS011;43173;50.980;18.204;2024-03-22T12:38:34;15.20;;;8.30;;
57337;SDS011;43173;50.980;18.204;2024-03-22T12:40:59;11.80;;;6.90;;
57337;SDS011;43173;50.980;18.204;2024-03-22T12:43:24;12.70;;;7.80;;
57337;SDS011;43173;50.980;18.204;2024-03-22T12:45:50;10.80;;;7.00;;
57337;SDS011;43173;50.980;18.204;2024-03-22T12:48:16;9.30;;;6.30;;
57337;SDS011;43173;50.980;18.204;2024-03-22T12:50:42;16.30;;;7.70;;
57337;SDS011;43173;50.980;18.204;2024-03-22T12:53:08;11.50;;;7.60;;
57337;SDS011;43173;50.980;18.204;2024-03-22T12:55:33;11.60;;;7.50;;
57337;SDS011;43173;50.980;18.204;2024-03-22T12:57:59;11.80;;;7.80;;
57337;SDS011;43173;50.980;18.204;2024-03-22T13:00:24;12.30;;;7.80;;
57337;SDS011;43173;50.980;18.204;2024-03-22T13:02:50;11.50;;;7.90;;
57337;SDS011;43173;50.980;18.204;2024-03-22T13:05:16;12.30;;;7.50;;
57337;SDS011;43173;50.980;18.204;2024-03-22T13:07:41;10.70;;;7.00;;
57337;SDS011;43173;50.980;18.204;2024-03-22T13:10:08;12.40;;;8.50;;
57337;SDS011;43173;50.980;18.204;2024-03-22T13:12:34;12.00;;;7.60;;
57337;SDS011;43173;50.980;18.204;2024-03-22T13:15:00;14.50;;;7.90;;
57337;SDS011;43173;50.980;18.204;2024-03-22T13:17:26;10.90;;;7.50;;
57337;SDS011;43173;50.980;18.204;2024-03-22T13:19:52;13.00;;;7.40;;
57337;SDS011;43173;50.980;18.204;2024-03-22T13:22:17;13.50;;;8.10;;
57337;SDS011;43173;50.980;18.204;2024-03-22T13:24:46;13.70;;;7.20;;
57337;SDS011;43173;50.980;18.204;2024-03-22T13:27:12;11.20;;;7.20;;
57337;SDS011;43173;50.980;18.204;2024-03-22T13:29:38;12.30;;;6.90;;
57337;SDS011;43173;50.980;18.204;2024-03-22T13:32:05;12.00;;;7.70;;
57337;SDS011;43173;50.980;18.204;2024-03-22T13:34:35;11.20;;;6.90;;
57337;SDS011;43173;50.980;18.204;2024-03-22T13:37:01;10.70;;;6.40;;
57337;SDS011;43173;50.980;18.204;2024-03-22T13:39:27;9.10;;;7.10;;
57337;SDS011;43173;50.980;18.204;2024-03-22T13:41:56;16.10;;;7.90;;
57337;SDS011;43173;50.980;18.204;2024-03-22T13:44:22;12.70;;;8.10;;
57337;SDS011;43173;50.980;18.204;2024-03-22T13:46:51;12.40;;;6.50;;
57337;SDS011;43173;50.980;18.204;2024-03-22T13:49:17;10.00;;;5.80;;
57337;SDS011;43173;50.980;18.204;2024-03-22T13:51:46;8.20;;;5.60;;
57337;SDS011;43173;50.980;18.204;2024-03-22T13:54:12;9.60;;;6.50;;
57337;SDS011;43173;50.980;18.204;2024-03-22T13:56:37;9.60;;;5.60;;
57337;SDS011;43173;50.980;18.204;2024-03-22T13:59:03;7.80;;;4.70;;
57337;SDS011;43173;50.980;18.204;2024-03-22T14:01:36;10.40;;;5.50;;
57337;SDS011;43173;50.980;18.204;2024-03-22T14:04:02;9.90;;;5.70;;
57337;SDS011;43173;50.980;18.204;2024-03-22T14:06:31;11.20;;;6.00;;
57337;SDS011;43173;50.980;18.204;2024-03-22T14:08:57;9.30;;;5.60;;
57337;SDS011;43173;50.980;18.204;2024-03-22T14:11:26;10.00;;;6.20;;
57337;SDS011;43173;50.980;18.204;2024-03-22T14:13:53;7.80;;;5.80;;
57337;SDS011;43173;50.980;18.204;2024-03-22T14:16:19;9.50;;;5.80;;
57337;SDS011;43173;50.980;18.204;2024-03-22T14:18:44;8.80;;;5.80;;
57337;SDS011;43173;50.980;18.204;2024-03-22T14:21:09;10.40;;;5.60;;
57337;SDS011;43173;50.980;18.204;2024-03-22T14:23:37;14.50;;;6.40;;
57337;SDS011;43173;50.980;18.204;2024-03-22T14:26:02;7.60;;;5.50;;
57337;SDS011;43173;50.980;18.204;2024-03-22T14:28:28;9.50;;;6.30;;
57337;SDS011;43173;50.980;18.204;2024-03-22T14:30:53;8.60;;;5.20;;
57337;SDS011;43173;50.980;18.204;2024-03-22T14:33:19;9.00;;;5.60;;
57337;SDS011;43173;50.980;18.204;2024-03-22T14:35:45;9.20;;;6.00;;
57337;SDS011;43173;50.980;18.204;2024-03-22T14:38:11;9.70;;;5.60;;
57337;SDS011;43173;50.980;18.204;2024-03-22T14:40:37;12.40;;;7.00;;
57337;SDS011;43173;50.980;18.204;2024-03-22T14:43:03;17.30;;;7.10;;
57337;SDS011;43173;50.980;18.204;2024-03-22T14:45:30;10.40;;;6.40;;
57337;SDS011;43173;50.980;18.204;2024-03-22T14:47:55;9.80;;;5.70;;
57337;SDS011;43173;50.980;18.204;2024-03-22T14:50:21;9.20;;;5.80;;